createdAt,value
2018-03-25T00:02:17.553Z,51.40
2018-03-25T00:04:43.786Z,50.66
2018-03-25T00:07:10.038Z,50.97
2018-03-25T00:09:36.308Z,51.13
2018-03-25T00:12:02.570Z,51.05
2018-03-25T00:14:28.826Z,50.84
2018-03-25T00:16:56.230Z,50.39
2018-03-25T00:19:22.483Z,50.32
2018-03-25T00:21:48.737Z,49.88
2018-03-25T00:24:15.024Z,50.16
2018-03-25T00:26:41.262Z,50.30
2018-03-25T00:29:07.510Z,49.87
2018-03-25T00:31:33.797Z,49.55
2018-03-25T00:34:00.050Z,49.58
2018-03-25T00:36:26.428Z,49.95
2018-03-25T00:38:52.749Z,49.94
2018-03-25T00:41:19.038Z,49.74
2018-03-25T00:43:45.280Z,49.92
2018-03-25T00:46:11.548Z,50.21
2018-03-25T00:48:39.878Z,50.46
2018-03-25T00:51:06.133Z,50.32
2018-03-25T00:53:32.469Z,50.46
2018-03-25T00:55:58.751Z,50.73
2018-03-25T00:58:25.028Z,50.44
2018-03-25T01:00:51.361Z,50.67
2018-03-25T01:03:17.587Z,50.79
2018-03-25T01:05:43.821Z,51.28
2018-03-25T01:08:10.116Z,51.43
2018-03-25T01:10:36.358Z,51.74
2018-03-25T01:13:02.592Z,51.76
2018-03-25T01:15:41.077Z,51.68
2018-03-25T01:18:07.359Z,51.51
2018-03-25T01:20:33.645Z,51.56
2018-03-25T01:23:00.021Z,51.74
2018-03-25T01:25:26.273Z,51.88
2018-03-25T01:27:52.553Z,51.96
2018-03-25T01:30:18.810Z,51.78
2018-03-25T01:32:45.093Z,51.70
2018-03-25T01:35:11.331Z,52.27
2018-03-25T01:37:37.605Z,52.05
2018-03-25T01:40:03.867Z,52.20
2018-03-25T01:42:30.178Z,52.24
2018-03-25T01:44:56.437Z,52.28
2018-03-25T01:47:22.779Z,52.52
2018-03-25T01:49:49.092Z,52.64
2018-03-25T01:52:15.352Z,52.32
2018-03-25T01:54:41.809Z,52.41
2018-03-25T01:57:08.069Z,52.53
2018-03-25T01:59:34.340Z,52.67
2018-03-25T02:02:00.725Z,52.94
2018-03-25T02:04:27.038Z,53.31
2018-03-25T02:06:53.374Z,53.29
2018-03-25T02:09:19.632Z,53.33
2018-03-25T02:11:45.918Z,53.47
2018-03-25T02:14:12.251Z,53.79
2018-03-25T02:16:38.522Z,53.86
2018-03-25T02:19:04.836Z,53.94
2018-03-25T02:21:31.165Z,53.88
2018-03-25T02:23:57.398Z,53.65
2018-03-25T02:26:23.803Z,53.82
2018-03-25T02:28:50.128Z,53.74
2018-03-25T02:31:16.414Z,53.93
2018-03-25T02:33:42.701Z,54.12
2018-03-25T02:36:09.032Z,54.21
2018-03-25T02:38:35.369Z,54.52
2018-03-25T02:41:01.678Z,54.71
2018-03-25T02:43:27.952Z,54.67
2018-03-25T02:45:54.236Z,54.71
2018-03-25T02:48:20.530Z,54.63
2018-03-25T02:50:46.792Z,54.88
2018-03-25T02:53:13.080Z,54.97
2018-03-25T02:55:39.398Z,54.70
2018-03-25T02:58:05.680Z,54.84
2018-03-25T03:00:32.077Z,55.30
2018-03-25T03:02:58.407Z,55.37
2018-03-25T03:05:24.707Z,55.24
2018-03-25T03:07:50.974Z,55.35
2018-03-25T03:10:18.265Z,55.30
2018-03-25T03:12:44.525Z,55.33
2018-03-25T03:15:10.813Z,55.41
2018-03-25T03:17:37.117Z,55.56
2018-03-25T03:20:03.427Z,55.50
2018-03-25T03:22:29.728Z,55.68
2018-03-25T03:24:56.009Z,55.60
2018-03-25T03:27:22.514Z,55.59
2018-03-25T03:29:48.765Z,55.59
2018-03-25T03:32:15.050Z,56.27
2018-03-25T03:34:41.634Z,56.45
2018-03-25T03:37:07.889Z,56.61
2018-03-25T03:39:34.247Z,56.58
2018-03-25T03:42:00.562Z,57.11
2018-03-25T03:44:26.816Z,57.04
2018-03-25T03:46:53.386Z,56.80
2018-03-25T03:49:19.687Z,56.78
2018-03-25T03:51:46.159Z,57.42
2018-03-25T03:54:12.625Z,57.28
2018-03-25T03:56:38.929Z,57.36
2018-03-25T03:59:05.564Z,57.14
2018-03-25T04:01:31.849Z,56.84
2018-03-25T04:03:58.185Z,56.85
2018-03-25T04:06:24.533Z,56.89
2018-03-25T04:08:50.801Z,56.46
2018-03-25T04:11:17.496Z,55.94
2018-03-25T04:13:43.753Z,55.68
2018-03-25T04:16:10.148Z,55.43
2018-03-25T04:18:36.602Z,54.76
2018-03-25T04:21:02.926Z,54.18
2018-03-25T04:23:29.630Z,54.11
2018-03-25T04:25:55.876Z,54.38
2018-03-25T04:28:22.254Z,53.95
2018-03-25T04:30:48.645Z,53.81
2018-03-25T04:33:15.870Z,53.49
2018-03-25T04:35:42.560Z,53.38
2018-03-25T04:38:08.832Z,53.70
2018-03-25T04:40:35.405Z,53.66
2018-03-25T04:43:01.686Z,53.64
2018-03-25T04:45:28.023Z,53.25
2018-03-25T04:47:54.476Z,53.16
2018-03-25T04:50:20.745Z,53.43
2018-03-25T04:52:47.290Z,53.73
2018-03-25T04:55:13.562Z,53.97
2018-03-25T04:57:39.814Z,53.61
2018-03-25T05:00:06.321Z,53.30
2018-03-25T05:02:32.576Z,53.45
2018-03-25T05:04:59.069Z,53.79
2018-03-25T05:07:25.344Z,53.93
2018-03-25T05:09:51.585Z,53.62
2018-03-25T05:12:18.164Z,53.55
2018-03-25T05:14:44.424Z,53.43
2018-03-25T05:17:10.910Z,53.55
2018-03-25T05:19:37.174Z,53.60
2018-03-25T05:22:03.440Z,53.78
2018-03-25T05:24:29.719Z,53.58
2018-03-25T05:26:55.960Z,53.37
2018-03-25T05:29:22.226Z,53.02
2018-03-25T05:31:48.485Z,52.85
2018-03-25T05:34:14.746Z,52.73
2018-03-25T05:36:40.988Z,52.53
2018-03-25T05:39:07.257Z,52.45
2018-03-25T05:41:33.504Z,52.35
2018-03-25T05:43:59.770Z,51.94
2018-03-25T05:46:26.041Z,51.80
2018-03-25T05:48:52.281Z,51.51
2018-03-25T05:51:18.641Z,51.14
2018-03-25T05:53:44.884Z,50.96
2018-03-25T05:56:11.206Z,50.58
2018-03-25T05:58:37.465Z,50.26
2018-03-25T06:01:03.839Z,49.93
2018-03-25T06:03:30.080Z,49.86
2018-03-25T06:05:56.489Z,49.50
2018-03-25T06:08:22.774Z,49.16
2018-03-25T06:10:49.018Z,48.98
2018-03-25T06:13:15.300Z,48.62
2018-03-25T06:15:41.536Z,48.47
2018-03-25T06:18:07.808Z,47.57
2018-03-25T06:20:34.067Z,46.99
2018-03-25T06:23:00.412Z,46.47
2018-03-25T06:25:26.662Z,46.07
2018-03-25T06:27:52.932Z,45.53
2018-03-25T06:30:19.187Z,45.24
2018-03-25T06:32:45.444Z,45.50
2018-03-25T06:35:11.704Z,45.44
2018-03-25T06:37:38.805Z,44.50
2018-03-25T06:40:05.114Z,44.18
2018-03-25T06:42:31.352Z,44.02
2018-03-25T06:44:57.634Z,42.88
2018-03-25T06:47:23.864Z,42.35
2018-03-25T06:49:50.092Z,42.39
2018-03-25T06:52:16.370Z,41.68
2018-03-25T06:54:42.600Z,41.81
2018-03-25T06:57:08.913Z,40.97
2018-03-25T06:59:35.162Z,41.12
2018-03-25T07:02:01.446Z,40.79
2018-03-25T07:04:32.492Z,40.02
2018-03-25T07:06:58.744Z,39.33
2018-03-25T07:09:25.057Z,39.51
2018-03-25T07:11:51.380Z,39.04
2018-03-25T07:14:17.633Z,38.62
2018-03-25T07:16:43.924Z,38.34
2018-03-25T07:19:10.201Z,37.95
2018-03-25T07:21:36.472Z,37.11
2018-03-25T07:24:02.729Z,37.70
2018-03-25T07:26:28.980Z,37.23
2018-03-25T07:28:55.264Z,36.35
2018-03-25T07:31:21.496Z,35.66
2018-03-25T07:33:47.721Z,35.44
2018-03-25T07:36:14.061Z,34.70
2018-03-25T07:38:40.321Z,33.55
2018-03-25T07:41:06.609Z,33.50
2018-03-25T07:43:32.867Z,33.45
2018-03-25T07:45:59.154Z,32.81
2018-03-25T07:48:25.420Z,32.38
2018-03-25T07:50:51.708Z,31.93
2018-03-25T07:53:17.947Z,31.04
2018-03-25T07:55:44.193Z,30.89
2018-03-25T07:58:10.521Z,29.58
2018-03-25T08:00:36.768Z,29.00
2018-03-25T08:03:04.128Z,28.91
2018-03-25T08:05:30.402Z,28.01
2018-03-25T08:07:56.721Z,26.36
2018-03-25T08:10:22.980Z,25.35
2018-03-25T08:12:49.258Z,25.32
2018-03-25T08:15:15.573Z,24.75
2018-03-25T08:17:41.914Z,23.85
2018-03-25T08:20:08.216Z,23.12
2018-03-25T08:22:34.545Z,22.76
2018-03-25T08:25:00.820Z,22.25
2018-03-25T08:27:27.076Z,21.26
2018-03-25T08:29:53.391Z,21.20
2018-03-25T08:32:19.758Z,21.45
2018-03-25T08:34:46.024Z,20.77
2018-03-25T08:37:12.417Z,19.78
2018-03-25T08:39:38.661Z,19.83
2018-03-25T08:42:05.008Z,20.24
2018-03-25T08:44:31.241Z,20.27
2018-03-25T08:46:57.617Z,19.99
2018-03-25T08:49:23.881Z,19.54
2018-03-25T08:51:50.226Z,19.47
2018-03-25T08:54:16.553Z,19.15
2018-03-25T08:56:42.857Z,18.94
2018-03-25T08:59:09.735Z,19.33
2018-03-25T09:01:35.986Z,18.23
2018-03-25T09:04:02.278Z,17.83
2018-03-25T09:06:28.569Z,17.46
2018-03-25T09:08:54.888Z,17.91
2018-03-25T09:11:21.208Z,18.86
2018-03-25T09:13:47.485Z,18.71
2018-03-25T09:16:13.776Z,18.43
2018-03-25T09:18:40.072Z,17.79
2018-03-25T09:21:06.329Z,17.57
2018-03-25T09:23:32.588Z,17.47
2018-03-25T09:25:58.867Z,17.63
2018-03-25T09:28:25.136Z,17.27
2018-03-25T09:30:51.429Z,17.08
2018-03-25T09:33:17.681Z,16.47
2018-03-25T09:35:43.974Z,16.21
2018-03-25T09:38:10.225Z,16.49
2018-03-25T09:40:36.561Z,16.14
2018-03-25T09:43:02.837Z,16.12
2018-03-25T09:45:29.136Z,15.11
2018-03-25T09:47:55.434Z,15.99
2018-03-25T09:50:21.693Z,15.33
2018-03-25T09:52:47.981Z,15.29
2018-03-25T09:55:14.265Z,16.14
2018-03-25T09:57:40.571Z,16.80
2018-03-25T10:00:06.866Z,15.99
2018-03-25T10:02:39.183Z,16.81
2018-03-25T10:05:05.442Z,16.36
2018-03-25T10:07:31.819Z,16.51
2018-03-25T10:09:58.080Z,16.21
2018-03-25T10:12:24.342Z,16.39
2018-03-25T10:14:50.618Z,15.64
2018-03-25T10:17:16.881Z,16.36
2018-03-25T10:19:43.137Z,15.70
2018-03-25T10:22:09.444Z,16.74
2018-03-25T10:24:35.696Z,15.84
2018-03-25T10:27:04.180Z,16.56
2018-03-25T10:29:30.531Z,16.16
2018-03-25T10:31:56.785Z,15.80
2018-03-25T10:34:23.057Z,16.03
2018-03-25T10:36:49.353Z,16.20
2018-03-25T10:39:15.622Z,16.57
2018-03-25T10:41:41.880Z,15.43
2018-03-25T10:44:08.242Z,14.74
2018-03-25T10:46:34.640Z,14.26
2018-03-25T10:49:01.145Z,13.97
2018-03-25T10:51:27.509Z,13.95
2018-03-25T10:53:53.801Z,14.08
2018-03-25T10:56:20.169Z,13.78
2018-03-25T10:58:46.504Z,13.78
2018-03-25T11:01:12.844Z,14.18
2018-03-25T11:03:39.218Z,13.17
2018-03-25T11:06:05.461Z,13.60
2018-03-25T11:08:31.849Z,13.06
2018-03-25T11:10:58.148Z,12.66
2018-03-25T11:13:24.426Z,12.40
2018-03-25T11:15:50.673Z,12.59
2018-03-25T11:18:17.121Z,12.41
2018-03-25T11:20:43.422Z,12.27
2018-03-25T11:23:09.933Z,12.43
2018-03-25T11:25:36.230Z,12.09
2018-03-25T11:28:02.511Z,12.28
2018-03-25T11:30:28.878Z,11.97
2018-03-25T11:32:55.625Z,11.61
2018-03-25T11:35:22.304Z,11.57
2018-03-25T11:37:48.612Z,10.81
2018-03-25T11:40:14.972Z,10.92
2018-03-25T11:42:41.215Z,10.57
2018-03-25T11:45:07.700Z,10.72
2018-03-25T11:47:34.026Z,10.88
2018-03-25T11:50:00.565Z,10.99
2018-03-25T11:52:26.993Z,10.94
2018-03-25T11:54:53.228Z,11.11
2018-03-25T11:57:19.550Z,10.88
2018-03-25T11:59:45.824Z,10.11
2018-03-25T12:02:12.248Z,10.26
2018-03-25T12:04:38.577Z,10.16
2018-03-25T12:07:05.067Z,9.98
2018-03-25T12:09:31.354Z,10.42
2018-03-25T12:11:57.878Z,10.42
2018-03-25T12:14:24.184Z,10.53
2018-03-25T12:16:50.453Z,9.20
2018-03-25T12:19:16.786Z,9.74
2018-03-25T12:21:43.064Z,9.32
2018-03-25T12:24:09.307Z,9.49
2018-03-25T12:26:35.905Z,9.86
2018-03-25T12:29:02.156Z,10.02
2018-03-25T12:31:28.577Z,10.20
2018-03-25T12:33:54.935Z,10.16
2018-03-25T12:36:21.341Z,10.16
2018-03-25T12:38:47.576Z,9.41
2018-03-25T12:41:13.853Z,9.37
2018-03-25T12:43:40.124Z,9.43
2018-03-25T12:46:06.508Z,10.70
2018-03-25T12:48:32.877Z,10.50
2018-03-25T12:50:59.128Z,10.04
2018-03-25T12:53:25.507Z,10.69
2018-03-25T12:55:51.790Z,9.26
2018-03-25T12:58:18.246Z,9.72
2018-03-25T13:00:44.515Z,9.48
2018-03-25T13:03:10.895Z,9.70
2018-03-25T13:05:37.188Z,10.05
2018-03-25T13:08:03.469Z,9.75
2018-03-25T13:10:29.720Z,9.61
2018-03-25T13:12:56.352Z,10.24
2018-03-25T13:15:22.629Z,9.47
2018-03-25T13:17:49.045Z,9.84
2018-03-25T13:20:15.343Z,8.82
2018-03-25T13:22:41.725Z,9.26
2018-03-25T13:25:08.074Z,9.75
2018-03-25T13:27:34.389Z,10.41
2018-03-25T13:30:00.860Z,8.87
2018-03-25T13:32:27.171Z,8.71
2018-03-25T13:34:53.641Z,8.90
2018-03-25T13:37:19.928Z,9.22
2018-03-25T13:39:46.289Z,9.13
2018-03-25T13:42:12.626Z,9.66
2018-03-25T13:44:39.017Z,9.89
2018-03-25T13:47:05.304Z,11.03
2018-03-25T13:49:31.584Z,12.09
2018-03-25T13:51:58.131Z,11.81
2018-03-25T13:54:24.523Z,11.96
2018-03-25T13:56:50.873Z,12.50
2018-03-25T13:59:17.178Z,14.21
2018-03-25T14:01:43.709Z,12.94
2018-03-25T14:04:09.961Z,12.61
2018-03-25T14:06:36.385Z,11.58
2018-03-25T14:09:02.701Z,12.16
2018-03-25T14:11:29.151Z,12.36
2018-03-25T14:13:55.472Z,12.38
2018-03-25T14:16:21.888Z,12.02
2018-03-25T14:18:48.198Z,12.13
2018-03-25T14:21:14.465Z,12.70
2018-03-25T14:23:40.910Z,14.76
2018-03-25T14:26:07.165Z,16.68
2018-03-25T14:28:33.548Z,16.02
2018-03-25T14:30:59.847Z,15.13
2018-03-25T14:33:26.133Z,14.30
2018-03-25T14:35:52.409Z,13.93
2018-03-25T14:38:18.781Z,13.52
2018-03-25T14:40:45.069Z,13.37
2018-03-25T14:43:11.358Z,13.12
2018-03-25T14:45:37.633Z,13.59
2018-03-25T14:48:04.130Z,13.56
2018-03-25T14:50:30.456Z,13.05
2018-03-25T14:52:56.804Z,13.12
2018-03-25T14:55:23.118Z,13.29
2018-03-25T14:57:49.403Z,13.26
2018-03-25T15:00:15.914Z,13.34
2018-03-25T15:02:42.191Z,13.24
2018-03-25T15:05:08.636Z,13.29
2018-03-25T15:07:34.934Z,13.96
2018-03-25T15:10:01.449Z,13.98
2018-03-25T15:12:27.765Z,13.59
2018-03-25T15:14:54.078Z,13.90
2018-03-25T15:17:20.410Z,14.23
2018-03-25T15:19:46.881Z,14.19
2018-03-25T15:22:13.186Z,14.51
2018-03-25T15:24:40.007Z,15.04
2018-03-25T15:27:06.349Z,15.22
2018-03-25T15:29:32.641Z,15.98
2018-03-25T15:31:58.955Z,16.48
2018-03-25T15:34:25.277Z,16.74
2018-03-25T15:36:51.575Z,16.47
2018-03-25T15:39:18.096Z,16.91
2018-03-25T15:41:44.345Z,17.12
2018-03-25T15:44:10.875Z,18.25
2018-03-25T15:46:37.164Z,18.23
2018-03-25T15:49:03.559Z,18.99
2018-03-25T15:51:29.831Z,19.28
2018-03-25T15:53:56.132Z,19.46
2018-03-25T15:56:22.588Z,20.25
2018-03-25T15:58:48.863Z,20.39
2018-03-25T16:01:15.163Z,20.79
2018-03-25T16:03:41.433Z,21.21
2018-03-25T16:06:07.683Z,21.40
2018-03-25T16:08:34.048Z,22.00
2018-03-25T16:11:00.336Z,22.38
2018-03-25T16:13:26.598Z,23.40
2018-03-25T16:15:52.887Z,24.69
2018-03-25T16:18:19.184Z,25.72
2018-03-25T16:20:45.559Z,26.06
2018-03-25T16:23:11.852Z,27.15
2018-03-25T16:25:38.130Z,28.11
2018-03-25T16:28:04.503Z,28.42
2018-03-25T16:30:30.768Z,29.25
2018-03-25T16:32:57.037Z,29.35
2018-03-25T16:35:23.337Z,30.13
2018-03-25T16:37:49.606Z,29.99
2018-03-25T16:40:15.929Z,30.92
2018-03-25T16:42:42.165Z,31.17
2018-03-25T16:45:08.425Z,31.55
2018-03-25T16:47:34.696Z,31.94
2018-03-25T16:50:00.972Z,32.69
2018-03-25T16:52:27.694Z,33.18
2018-03-25T16:54:54.100Z,33.31
2018-03-25T16:57:20.463Z,34.20
2018-03-25T16:59:46.692Z,34.90
2018-03-25T17:02:13.064Z,34.76
2018-03-25T17:04:39.313Z,34.59
2018-03-25T17:07:05.581Z,34.75
2018-03-25T17:09:31.925Z,34.90
2018-03-25T17:11:58.177Z,35.24
2018-03-25T17:14:24.508Z,35.41
2018-03-25T17:16:50.776Z,35.83
2018-03-25T17:19:17.080Z,36.13
2018-03-25T17:21:44.330Z,36.26
2018-03-25T17:24:10.624Z,36.43
2018-03-25T17:26:36.967Z,36.41
2018-03-25T17:29:03.339Z,36.79
2018-03-25T17:31:29.726Z,36.98
2018-03-25T17:33:55.996Z,37.12
2018-03-25T17:36:22.285Z,37.15
2018-03-25T17:38:48.545Z,37.48
2018-03-25T17:41:14.886Z,37.91
2018-03-25T17:43:41.373Z,38.32
2018-03-25T17:46:07.674Z,38.00
2018-03-25T17:48:34.104Z,38.35
2018-03-25T17:51:00.397Z,38.32
2018-03-25T17:53:26.702Z,38.46
2018-03-25T17:55:52.962Z,38.69
2018-03-25T17:58:19.348Z,38.84
2018-03-25T18:00:45.649Z,38.97
2018-03-25T18:03:11.929Z,39.28
2018-03-25T18:05:38.495Z,39.18
2018-03-25T18:08:04.806Z,38.92
2018-03-25T18:10:31.116Z,39.44
2018-03-25T18:12:57.479Z,39.73
2018-03-25T18:15:23.742Z,39.85
2018-03-25T18:17:50.070Z,39.86
2018-03-25T18:20:16.408Z,40.19
2018-03-25T18:22:42.875Z,40.29
2018-03-25T18:25:09.244Z,40.33
2018-03-25T18:27:35.623Z,40.50
2018-03-25T18:30:01.868Z,40.69
2018-03-25T18:32:28.169Z,40.69
2018-03-25T18:34:54.480Z,41.02
2018-03-25T18:37:20.787Z,41.03
2018-03-25T18:39:47.123Z,41.62
2018-03-25T18:42:13.396Z,42.02
2018-03-25T18:44:39.910Z,42.05
2018-03-25T18:47:06.168Z,42.20
2018-03-25T18:49:32.420Z,42.30
2018-03-25T18:51:58.793Z,42.37
2018-03-25T18:54:25.065Z,42.52
2018-03-25T18:56:51.293Z,42.82
2018-03-25T18:59:17.568Z,42.98
2018-03-25T19:01:43.807Z,43.05
2018-03-25T19:04:10.053Z,42.91
2018-03-25T19:06:36.341Z,42.89
2018-03-25T19:09:02.700Z,42.96
2018-03-25T19:11:28.948Z,43.16
2018-03-25T19:13:55.253Z,43.56
2018-03-25T19:16:21.506Z,43.94
2018-03-25T19:18:47.747Z,44.04
2018-03-25T19:21:14.254Z,44.12
2018-03-25T19:23:40.701Z,43.90
2018-03-25T19:26:06.937Z,43.97
2018-03-25T19:28:33.326Z,44.20
2018-03-25T19:30:59.773Z,43.85
2018-03-25T19:33:26.028Z,44.32
2018-03-25T19:35:52.309Z,44.22
2018-03-25T19:38:18.589Z,44.23
2018-03-25T19:40:44.885Z,44.16
2018-03-25T19:43:11.210Z,44.43
2018-03-25T19:45:37.626Z,44.76
2018-03-25T19:48:04.078Z,44.65
2018-03-25T19:50:30.852Z,44.51
2018-03-25T19:52:57.506Z,44.87
2018-03-25T19:55:24.056Z,45.11
2018-03-25T19:57:50.478Z,45.25
2018-03-25T20:00:16.770Z,45.39
2018-03-25T20:02:43.013Z,45.52
2018-03-25T20:05:09.249Z,45.33
2018-03-25T20:07:35.665Z,45.65
2018-03-25T20:10:02.068Z,46.15
2018-03-25T20:12:28.357Z,45.92
2018-03-25T20:14:54.768Z,46.25
2018-03-25T20:17:21.136Z,45.98
2018-03-25T20:19:47.388Z,45.95
2018-03-25T20:22:13.639Z,45.96
2018-03-25T20:24:39.888Z,46.27
2018-03-25T20:27:06.220Z,46.37
2018-03-25T20:29:32.620Z,46.75
2018-03-25T20:31:58.879Z,46.70
2018-03-25T20:34:25.218Z,46.75
2018-03-25T20:36:51.562Z,46.79
2018-03-25T20:39:17.825Z,47.21
2018-03-25T20:41:44.201Z,47.43
2018-03-25T20:44:10.596Z,47.17
2018-03-25T20:46:36.844Z,47.60
2018-03-25T20:49:03.144Z,47.45
2018-03-25T20:51:29.676Z,47.58
2018-03-25T20:53:55.933Z,47.25
2018-03-25T20:56:22.369Z,47.23
2018-03-25T20:58:48.625Z,47.78
2018-03-25T21:01:15.017Z,47.97
2018-03-25T21:03:41.381Z,48.36
2018-03-25T21:06:07.941Z,48.25
2018-03-25T21:08:34.194Z,48.12
2018-03-25T21:11:00.958Z,47.98
2018-03-25T21:13:27.373Z,48.34
2018-03-25T21:15:53.718Z,48.31
2018-03-25T21:18:20.039Z,48.73
2018-03-25T21:20:46.301Z,48.48
2018-03-25T21:23:12.700Z,47.96
2018-03-25T21:25:40.070Z,47.80
2018-03-25T21:28:06.450Z,47.95
2018-03-25T21:30:32.702Z,47.97
2018-03-25T21:32:58.944Z,48.28
2018-03-25T21:35:25.342Z,48.58
2018-03-25T21:37:51.609Z,48.34
2018-03-25T21:40:18.892Z,48.61
2018-03-25T21:42:45.172Z,48.60
2018-03-25T21:45:11.627Z,48.90
2018-03-25T21:47:37.911Z,48.82
2018-03-25T21:50:04.579Z,49.04
2018-03-25T21:52:30.820Z,48.80
2018-03-25T21:54:57.383Z,48.81
2018-03-25T21:57:23.738Z,48.79
2018-03-25T21:59:50.136Z,49.08
2018-03-25T22:02:16.584Z,49.14
2018-03-25T22:04:42.910Z,49.22
2018-03-25T22:07:09.275Z,49.54
2018-03-25T22:09:35.609Z,49.63
2018-03-25T22:12:01.894Z,50.14
2018-03-25T22:14:28.164Z,50.61
2018-03-25T22:16:54.527Z,50.63
2018-03-25T22:19:20.801Z,50.70
2018-03-25T22:21:47.265Z,50.64
2018-03-25T22:24:13.570Z,50.80
2018-03-25T22:26:39.949Z,50.70
2018-03-25T22:29:06.233Z,50.63
2018-03-25T22:31:32.537Z,50.55
2018-03-25T22:33:58.826Z,50.44
2018-03-25T22:36:25.096Z,50.46
2018-03-25T22:38:51.789Z,50.71
2018-03-25T22:41:18.054Z,51.03
2018-03-25T22:43:44.459Z,50.92
2018-03-25T22:46:10.903Z,51.16
2018-03-25T22:48:37.155Z,50.98
2018-03-25T22:51:03.745Z,51.15
2018-03-25T22:53:29.981Z,50.75
2018-03-25T22:55:56.309Z,50.83
2018-03-25T22:58:22.562Z,51.00
2018-03-25T23:00:48.897Z,50.98
2018-03-25T23:03:15.298Z,51.23
2018-03-25T23:05:41.584Z,51.54
2018-03-25T23:08:07.848Z,51.54
2018-03-25T23:10:34.204Z,51.81
2018-03-25T23:13:00.521Z,51.60
2018-03-25T23:15:26.838Z,51.68
2018-03-25T23:17:53.089Z,51.79
2018-03-25T23:20:19.357Z,51.92
2018-03-25T23:22:45.608Z,51.84
2018-03-25T23:25:11.868Z,51.85
2018-03-25T23:27:38.121Z,51.83
2018-03-25T23:30:04.420Z,52.15
2018-03-25T23:32:30.668Z,52.48
2018-03-25T23:34:56.959Z,52.12
2018-03-25T23:37:23.192Z,52.26
2018-03-25T23:39:49.437Z,52.18
2018-03-25T23:42:15.738Z,51.97
2018-03-25T23:44:42.001Z,52.03
2018-03-25T23:47:08.273Z,51.91
2018-03-25T23:49:34.535Z,52.22
2018-03-25T23:52:00.795Z,52.20
2018-03-25T23:54:27.052Z,51.92
2018-03-25T23:56:53.383Z,51.71
2018-03-25T23:59:19.641Z,51.46
